FIMP/MRU METAR and TAF weather

Enter ICAO airport designator
Station Type Date Time Source
FIMP METAR 2019/04/25 22:00 UTC NOAA

FIMP 252200Z 14012KT 6000 VCSH BKN015 25/20 Q1015


Station Type Date Time Source
FIMP Decoded METAR 2019/04/25 22:00 UTC NOAA

Plaisance Mauritius , Mauritius (FIMP) 20-26S 057-40E 57M
Apr 25, 2019 - 06:00 PM EDT / 2019.04.25 2200 UTC
Wind: from the SE (140 degrees) at 14 MPH (12 KT):0
Visibility: 3 mile(s):0
Sky conditions: mostly cloudy
Weather: showers in the vicinity
Temperature: 77 F (25 C)
Dew Point: 68 F (20 C)
Relative Humidity: 73%
Pressure (altimeter): 29.97 in. Hg (1015 hPa)
ob: FIMP 252200Z 14012KT 6000 VCSH BKN015 25/20 Q1015
cycle: 22

Station Type Date Time Source
FIMP TAF 2019/04/25 18:27 UTC NOAA

TAF FIMP 251710Z 2518/2700 14015G30KT 9999 SCT015
TEMPO 2518/2606 7000 -SHRA FEW010 BKN014 PROB30
TEMPO 2600/2606 4000 SHRA FEW008 BKN013

Example: see airport list